sensor_id;sensor_type;location;lat;lon;timestamp;P1;durP1;ratioP1;P2;durP2;ratioP2
41167;SDS011;26906;45.658;9.272;2023-05-20T06:43:33;10.43;;;7.57;;
41167;SDS011;26906;45.658;9.272;2023-05-20T06:46:07;8.57;;;7.32;;
41167;SDS011;26906;45.658;9.272;2023-05-20T06:48:39;16.63;;;8.80;;
41167;SDS011;26906;45.658;9.272;2023-05-20T06:51:06;15.20;;;7.65;;
41167;SDS011;26906;45.658;9.272;2023-05-20T06:53:33;11.05;;;7.25;;
41167;SDS011;26906;45.658;9.272;2023-05-20T06:55:59;17.15;;;7.80;;
41167;SDS011;26906;45.658;9.272;2023-05-20T06:58:25;10.77;;;6.20;;
41167;SDS011;26906;45.658;9.272;2023-05-20T07:00:54;10.25;;;6.15;;
41167;SDS011;26906;45.658;9.272;2023-05-20T07:03:19;7.57;;;5.93;;
41167;SDS011;26906;45.658;9.272;2023-05-20T07:05:45;6.85;;;4.93;;
41167;SDS011;26906;45.658;9.272;2023-05-20T07:08:15;7.32;;;5.07;;
41167;SDS011;26906;45.658;9.272;2023-05-20T07:10:55;8.77;;;4.78;;
41167;SDS011;26906;45.658;9.272;2023-05-20T07:13:23;5.78;;;5.18;;
41167;SDS011;26906;45.658;9.272;2023-05-20T07:15:51;4.70;;;4.30;;
41167;SDS011;26906;45.658;9.272;2023-05-20T07:18:16;5.72;;;5.15;;
41167;SDS011;26906;45.658;9.272;2023-05-20T07:20:50;19.10;;;5.78;;
41167;SDS011;26906;45.658;9.272;2023-05-20T07:23:30;20.13;;;7.53;;
41167;SDS011;26906;45.658;9.272;2023-05-20T07:25:57;20.30;;;7.15;;
41167;SDS011;26906;45.658;9.272;2023-05-20T07:28:23;13.70;;;5.97;;
41167;SDS011;26906;45.658;9.272;2023-05-20T07:30:49;24.10;;;5.50;;
41167;SDS011;26906;45.658;9.272;2023-05-20T07:33:21;13.00;;;7.72;;
41167;SDS011;26906;45.658;9.272;2023-05-20T07:35:47;6.35;;;5.53;;
41167;SDS011;26906;45.658;9.272;2023-05-20T07:38:13;8.82;;;5.72;;
41167;SDS011;26906;45.658;9.272;2023-05-20T07:40:41;7.68;;;5.53;;
41167;SDS011;26906;45.658;9.272;2023-05-20T07:43:13;32.97;;;10.43;;
41167;SDS011;26906;45.658;9.272;2023-05-20T07:45:38;6.20;;;5.25;;
41167;SDS011;26906;45.658;9.272;2023-05-20T07:48:05;19.85;;;6.30;;
41167;SDS011;26906;45.658;9.272;2023-05-20T07:50:33;15.38;;;6.05;;
41167;SDS011;26906;45.658;9.272;2023-05-20T07:52:59;8.60;;;6.15;;
41167;SDS011;26906;45.658;9.272;2023-05-20T07:55:28;8.02;;;5.80;;
41167;SDS011;26906;45.658;9.272;2023-05-20T07:57:55;10.07;;;5.97;;
41167;SDS011;26906;45.658;9.272;2023-05-20T08:00:24;55.25;;;10.32;;
41167;SDS011;26906;45.658;9.272;2023-05-20T08:02:50;10.25;;;6.43;;
41167;SDS011;26906;45.658;9.272;2023-05-20T08:05:22;10.88;;;6.53;;
41167;SDS011;26906;45.658;9.272;2023-05-20T08:07:48;10.45;;;6.78;;
41167;SDS011;26906;45.658;9.272;2023-05-20T08:10:15;10.98;;;6.85;;
41167;SDS011;26906;45.658;9.272;2023-05-20T08:12:42;9.13;;;7.50;;
41167;SDS011;26906;45.658;9.272;2023-05-20T08:15:10;11.13;;;6.95;;
41167;SDS011;26906;45.658;9.272;2023-05-20T08:17:36;9.50;;;6.55;;
41167;SDS011;26906;45.658;9.272;2023-05-20T08:20:05;9.30;;;6.15;;
41167;SDS011;26906;45.658;9.272;2023-05-20T08:22:34;12.75;;;6.50;;
41167;SDS011;26906;45.658;9.272;2023-05-20T08:25:01;8.98;;;6.10;;
41167;SDS011;26906;45.658;9.272;2023-05-20T08:27:28;10.13;;;6.15;;
41167;SDS011;26906;45.658;9.272;2023-05-20T08:29:55;10.35;;;6.15;;
41167;SDS011;26906;45.658;9.272;2023-05-20T08:32:21;9.25;;;6.32;;
41167;SDS011;26906;45.658;9.272;2023-05-20T08:34:47;11.35;;;7.35;;
41167;SDS011;26906;45.658;9.272;2023-05-20T08:37:13;9.55;;;6.22;;
41167;SDS011;26906;45.658;9.272;2023-05-20T08:39:39;10.10;;;6.22;;
41167;SDS011;26906;45.658;9.272;2023-05-20T08:42:07;9.40;;;6.93;;
41167;SDS011;26906;45.658;9.272;2023-05-20T08:44:35;8.10;;;6.25;;
41167;SDS011;26906;45.658;9.272;2023-05-20T08:47:03;9.20;;;6.82;;
41167;SDS011;26906;45.658;9.272;2023-05-20T08:49:30;10.02;;;6.68;;
41167;SDS011;26906;45.658;9.272;2023-05-20T08:51:58;8.80;;;7.00;;
41167;SDS011;26906;45.658;9.272;2023-05-20T08:54:25;9.55;;;7.20;;
41167;SDS011;26906;45.658;9.272;2023-05-20T08:57:02;9.15;;;7.22;;
41167;SDS011;26906;45.658;9.272;2023-05-20T08:59:30;6.35;;;5.75;;
41167;SDS011;26906;45.658;9.272;2023-05-20T09:01:57;7.18;;;5.75;;
41167;SDS011;26906;45.658;9.272;2023-05-20T09:04:22;6.95;;;5.82;;
41167;SDS011;26906;45.658;9.272;2023-05-20T09:06:49;7.43;;;5.05;;
41167;SDS011;26906;45.658;9.272;2023-05-20T09:09:16;5.80;;;5.18;;
41167;SDS011;26906;45.658;9.272;2023-05-20T09:11:44;9.88;;;5.93;;
41167;SDS011;26906;45.658;9.272;2023-05-20T09:14:12;6.20;;;5.50;;
41167;SDS011;26906;45.658;9.272;2023-05-20T09:16:38;6.07;;;5.47;;
41167;SDS011;26906;45.658;9.272;2023-05-20T09:19:06;6.93;;;6.00;;
41167;SDS011;26906;45.658;9.272;2023-05-20T09:21:34;7.43;;;5.90;;
41167;SDS011;26906;45.658;9.272;2023-05-20T09:24:00;6.60;;;6.00;;
41167;SDS011;26906;45.658;9.272;2023-05-20T09:26:26;7.28;;;4.80;;
41167;SDS011;26906;45.658;9.272;2023-05-20T09:28:54;9.93;;;6.40;;
41167;SDS011;26906;45.658;9.272;2023-05-20T09:31:20;8.77;;;5.97;;
41167;SDS011;26906;45.658;9.272;2023-05-20T09:33:50;8.77;;;6.30;;
41167;SDS011;26906;45.658;9.272;2023-05-20T09:36:16;5.82;;;5.22;;
41167;SDS011;26906;45.658;9.272;2023-05-20T09:38:44;6.35;;;5.75;;
41167;SDS011;26906;45.658;9.272;2023-05-20T09:41:11;5.55;;;4.95;;
41167;SDS011;26906;45.658;9.272;2023-05-20T09:43:41;6.53;;;5.53;;
41167;SDS011;26906;45.658;9.272;2023-05-20T09:46:06;4.38;;;3.97;;
41167;SDS011;26906;45.658;9.272;2023-05-20T09:48:37;5.00;;;4.05;;
41167;SDS011;26906;45.658;9.272;2023-05-20T09:51:05;4.93;;;4.25;;
41167;SDS011;26906;45.658;9.272;2023-05-20T09:53:31;5.70;;;4.70;;
41167;SDS011;26906;45.658;9.272;2023-05-20T09:55:57;5.60;;;4.22;;
41167;SDS011;26906;45.658;9.272;2023-05-20T09:58:23;4.72;;;3.47;;
41167;SDS011;26906;45.658;9.272;2023-05-20T10:00:50;5.22;;;4.20;;
41167;SDS011;26906;45.658;9.272;2023-05-20T10:03:16;6.35;;;4.38;;
41167;SDS011;26906;45.658;9.272;2023-05-20T10:05:56;5.13;;;4.25;;
41167;SDS011;26906;45.658;9.272;2023-05-20T10:11:15;4.43;;;3.95;;
41167;SDS011;26906;45.658;9.272;2023-05-20T10:16:53;7.18;;;4.53;;
41167;SDS011;26906;45.658;9.272;2023-05-20T10:19:37;5.85;;;4.47;;
41167;SDS011;26906;45.658;9.272;2023-05-20T10:22:04;6.40;;;4.28;;
41167;SDS011;26906;45.658;9.272;2023-05-20T10:24:36;6.25;;;4.95;;
41167;SDS011;26906;45.658;9.272;2023-05-20T10:27:16;7.00;;;4.78;;
41167;SDS011;26906;45.658;9.272;2023-05-20T10:29:52;3.95;;;3.28;;
41167;SDS011;26906;45.658;9.272;2023-05-20T10:32:26;3.97;;;2.83;;
41167;SDS011;26906;45.658;9.272;2023-05-20T10:34:59;4.47;;;3.10;;
41167;SDS011;26906;45.658;9.272;2023-05-20T10:37:31;3.10;;;2.30;;
41167;SDS011;26906;45.658;9.272;2023-05-20T10:42:35;3.25;;;2.17;;
41167;SDS011;26906;45.658;9.272;2023-05-20T10:45:01;2.58;;;2.38;;
41167;SDS011;26906;45.658;9.272;2023-05-20T10:47:28;3.90;;;2.80;;
41167;SDS011;26906;45.658;9.272;2023-05-20T10:49:55;8.15;;;3.25;;
41167;SDS011;26906;45.658;9.272;2023-05-20T10:52:22;3.70;;;2.90;;
41167;SDS011;26906;45.658;9.272;2023-05-20T10:57:17;3.47;;;3.00;;
41167;SDS011;26906;45.658;9.272;2023-05-20T10:59:43;4.22;;;2.90;;
41167;SDS011;26906;45.658;9.272;2023-05-20T11:02:11;6.47;;;3.97;;
41167;SDS011;26906;45.658;9.272;2023-05-20T11:04:41;4.00;;;3.70;;
41167;SDS011;26906;45.658;9.272;2023-05-20T11:07:09;4.40;;;3.90;;
41167;SDS011;26906;45.658;9.272;2023-05-20T11:09:35;5.07;;;3.90;;
41167;SDS011;26906;45.658;9.272;2023-05-20T11:12:00;4.93;;;2.60;;
41167;SDS011;26906;45.658;9.272;2023-05-20T11:14:27;3.35;;;3.05;;
41167;SDS011;26906;45.658;9.272;2023-05-20T11:16:59;3.25;;;2.95;;
41167;SDS011;26906;45.658;9.272;2023-05-20T11:19:26;3.40;;;2.90;;
41167;SDS011;26906;45.658;9.272;2023-05-20T11:21:53;2.85;;;2.55;;
41167;SDS011;26906;45.658;9.272;2023-05-20T11:24:23;3.65;;;2.80;;
41167;SDS011;26906;45.658;9.272;2023-05-20T11:26:52;2.40;;;2.20;;
41167;SDS011;26906;45.658;9.272;2023-05-20T11:29:21;2.80;;;2.60;;
41167;SDS011;26906;45.658;9.272;2023-05-20T11:31:50;20.00;;;5.03;;
41167;SDS011;26906;45.658;9.272;2023-05-20T11:34:22;3.20;;;2.85;;
41167;SDS011;26906;45.658;9.272;2023-05-20T11:36:54;5.53;;;3.17;;
41167;SDS011;26906;45.658;9.272;2023-05-20T11:39:23;2.85;;;2.58;;
41167;SDS011;26906;45.658;9.272;2023-05-20T11:41:51;3.58;;;2.72;;
41167;SDS011;26906;45.658;9.272;2023-05-20T11:44:18;2.65;;;2.45;;
41167;SDS011;26906;45.658;9.272;2023-05-20T11:46:45;4.47;;;2.90;;
41167;SDS011;26906;45.658;9.272;2023-05-20T11:49:12;2.95;;;2.30;;
41167;SDS011;26906;45.658;9.272;2023-05-20T11:51:39;3.40;;;3.10;;
41167;SDS011;26906;45.658;9.272;2023-05-20T11:54:06;6.60;;;4.40;;
41167;SDS011;26906;45.658;9.272;2023-05-20T11:56:33;22.52;;;13.38;;
41167;SDS011;26906;45.658;9.272;2023-05-20T11:59:03;5.22;;;4.03;;
41167;SDS011;26906;45.658;9.272;2023-05-20T12:01:30;4.15;;;3.33;;
41167;SDS011;26906;45.658;9.272;2023-05-20T12:04:03;9.10;;;6.45;;
41167;SDS011;26906;45.658;9.272;2023-05-20T12:06:29;4.40;;;4.00;;
41167;SDS011;26906;45.658;9.272;2023-05-20T12:08:55;2.97;;;2.70;;
41167;SDS011;26906;45.658;9.272;2023-05-20T12:11:23;4.18;;;3.00;;
41167;SDS011;26906;45.658;9.272;2023-05-20T12:13:49;4.03;;;3.60;;
41167;SDS011;26906;45.658;9.272;2023-05-20T12:16:15;4.07;;;3.30;;
41167;SDS011;26906;45.658;9.272;2023-05-20T12:18:41;4.78;;;3.35;;
41167;SDS011;26906;45.658;9.272;2023-05-20T12:21:06;7.75;;;5.15;;
41167;SDS011;26906;45.658;9.272;2023-05-20T12:23:32;4.40;;;3.42;;
41167;SDS011;26906;45.658;9.272;2023-05-20T12:25:58;4.65;;;3.30;;
41167;SDS011;26906;45.658;9.272;2023-05-20T12:28:24;6.18;;;3.33;;
41167;SDS011;26906;45.658;9.272;2023-05-20T12:30:50;6.07;;;3.63;;
41167;SDS011;26906;45.658;9.272;2023-05-20T12:33:15;4.60;;;3.60;;
41167;SDS011;26906;45.658;9.272;2023-05-20T12:35:44;4.63;;;3.65;;
41167;SDS011;26906;45.658;9.272;2023-05-20T12:38:10;5.80;;;3.40;;
41167;SDS011;26906;45.658;9.272;2023-05-20T12:40:37;3.17;;;2.83;;
41167;SDS011;26906;45.658;9.272;2023-05-20T12:43:04;5.10;;;3.30;;
41167;SDS011;26906;45.658;9.272;2023-05-20T12:45:30;3.92;;;2.67;;
41167;SDS011;26906;45.658;9.272;2023-05-20T12:47:56;3.58;;;2.50;;
41167;SDS011;26906;45.658;9.272;2023-05-20T12:50:22;3.00;;;2.50;;
41167;SDS011;26906;45.658;9.272;2023-05-20T12:52:49;3.42;;;2.33;;
41167;SDS011;26906;45.658;9.272;2023-05-20T12:55:15;2.30;;;2.03;;
41167;SDS011;26906;45.658;9.272;2023-05-20T12:57:44;3.70;;;1.60;;
41167;SDS011;26906;45.658;9.272;2023-05-20T13:00:10;3.13;;;1.63;;
41167;SDS011;26906;45.658;9.272;2023-05-20T13:02:37;3.13;;;1.80;;
41167;SDS011;26906;45.658;9.272;2023-05-20T13:05:04;2.22;;;1.70;;
41167;SDS011;26906;45.658;9.272;2023-05-20T13:07:30;2.00;;;1.80;;
41167;SDS011;26906;45.658;9.272;2023-05-20T13:09:57;2.28;;;1.50;;
41167;SDS011;26906;45.658;9.272;2023-05-20T13:12:23;2.25;;;1.90;;
41167;SDS011;26906;45.658;9.272;2023-05-20T13:14:49;2.10;;;1.70;;
41167;SDS011;26906;45.658;9.272;2023-05-20T13:17:14;2.15;;;1.95;;
41167;SDS011;26906;45.658;9.272;2023-05-20T13:19:40;3.10;;;2.25;;
41167;SDS011;26906;45.658;9.272;2023-05-20T13:22:10;3.97;;;2.28;;
41167;SDS011;26906;45.658;9.272;2023-05-20T13:24:36;2.58;;;1.92;;
41167;SDS011;26906;45.658;9.272;2023-05-20T13:27:02;4.38;;;2.08;;
41167;SDS011;26906;45.658;9.272;2023-05-20T13:29:28;2.70;;;2.08;;
41167;SDS011;26906;45.658;9.272;2023-05-20T13:31:55;4.32;;;2.10;;
41167;SDS011;26906;45.658;9.272;2023-05-20T13:34:21;2.25;;;1.92;;
41167;SDS011;26906;45.658;9.272;2023-05-20T13:36:47;4.25;;;1.80;;
41167;SDS011;26906;45.658;9.272;2023-05-20T13:39:14;2.25;;;1.60;;
41167;SDS011;26906;45.658;9.272;2023-05-20T13:41:41;2.90;;;2.05;;
41167;SDS011;26906;45.658;9.272;2023-05-20T13:44:06;2.25;;;1.95;;
41167;SDS011;26906;45.658;9.272;2023-05-20T13:46:32;2.70;;;1.55;;
41167;SDS011;26906;45.658;9.272;2023-05-20T13:48:59;3.03;;;1.98;;
41167;SDS011;26906;45.658;9.272;2023-05-20T13:51:24;11.68;;;5.97;;
41167;SDS011;26906;45.658;9.272;2023-05-20T13:53:50;8.10;;;2.47;;
41167;SDS011;26906;45.658;9.272;2023-05-20T13:56:16;2.25;;;2.03;;
41167;SDS011;26906;45.658;9.272;2023-05-20T13:58:41;6.22;;;2.75;;
41167;SDS011;26906;45.658;9.272;2023-05-20T14:01:07;4.60;;;2.55;;
41167;SDS011;26906;45.658;9.272;2023-05-20T14:03:33;3.65;;;3.00;;
41167;SDS011;26906;45.658;9.272;2023-05-20T14:06:01;3.78;;;2.75;;
41167;SDS011;26906;45.658;9.272;2023-05-20T14:08:27;2.88;;;2.25;;
41167;SDS011;26906;45.658;9.272;2023-05-20T14:10:52;2.63;;;2.13;;
41167;SDS011;26906;45.658;9.272;2023-05-20T14:13:23;8.93;;;3.88;;
41167;SDS011;26906;45.658;9.272;2023-05-20T14:15:49;6.93;;;4.57;;
41167;SDS011;26906;45.658;9.272;2023-05-20T14:18:19;5.60;;;3.25;;
41167;SDS011;26906;45.658;9.272;2023-05-20T14:20:45;3.40;;;2.40;;
41167;SDS011;26906;45.658;9.272;2023-05-20T14:23:11;4.32;;;2.17;;
41167;SDS011;26906;45.658;9.272;2023-05-20T14:25:37;4.38;;;2.72;;
41167;SDS011;26906;45.658;9.272;2023-05-20T14:28:03;3.72;;;2.47;;
41167;SDS011;26906;45.658;9.272;2023-05-20T14:30:29;4.60;;;2.50;;
41167;SDS011;26906;45.658;9.272;2023-05-20T14:32:55;5.32;;;2.70;;
41167;SDS011;26906;45.658;9.272;2023-05-20T14:35:21;3.05;;;2.40;;
41167;SDS011;26906;45.658;9.272;2023-05-20T14:37:47;4.35;;;2.13;;
41167;SDS011;26906;45.658;9.272;2023-05-20T14:40:13;4.07;;;2.05;;
41167;SDS011;26906;45.658;9.272;2023-05-20T14:42:39;5.00;;;2.17;;
41167;SDS011;26906;45.658;9.272;2023-05-20T14:45:05;8.02;;;3.03;;
41167;SDS011;26906;45.658;9.272;2023-05-20T14:47:31;3.47;;;2.75;;
41167;SDS011;26906;45.658;9.272;2023-05-20T14:49:57;5.82;;;3.10;;
41167;SDS011;26906;45.658;9.272;2023-05-20T14:52:24;5.10;;;2.90;;
41167;SDS011;26906;45.658;9.272;2023-05-20T14:54:50;5.75;;;3.30;;
41167;SDS011;26906;45.658;9.272;2023-05-20T14:57:15;6.85;;;3.63;;
41167;SDS011;26906;45.658;9.272;2023-05-20T14:59:41;5.53;;;3.28;;
41167;SDS011;26906;45.658;9.272;2023-05-20T15:02:07;3.30;;;3.00;;
41167;SDS011;26906;45.658;9.272;2023-05-20T15:04:33;3.55;;;2.72;;
41167;SDS011;26906;45.658;9.272;2023-05-20T15:06:59;4.43;;;3.45;;
41167;SDS011;26906;45.658;9.272;2023-05-20T15:09:25;3.35;;;2.92;;
41167;SDS011;26906;45.658;9.272;2023-05-20T15:11:51;5.30;;;3.08;;
41167;SDS011;26906;45.658;9.272;2023-05-20T15:14:17;4.40;;;2.88;;
41167;SDS011;26906;45.658;9.272;2023-05-20T15:16:43;6.60;;;4.22;;
41167;SDS011;26906;45.658;9.272;2023-05-20T15:19:11;5.00;;;3.65;;
41167;SDS011;26906;45.658;9.272;2023-05-20T15:21:37;3.40;;;3.10;;
41167;SDS011;26906;45.658;9.272;2023-05-20T15:24:03;7.82;;;3.42;;
41167;SDS011;26906;45.658;9.272;2023-05-20T15:26:30;5.70;;;3.63;;
41167;SDS011;26906;45.658;9.272;2023-05-20T15:28:56;5.03;;;3.47;;
41167;SDS011;26906;45.658;9.272;2023-05-20T15:31:22;3.95;;;3.42;;
41167;SDS011;26906;45.658;9.272;2023-05-20T15:33:49;5.40;;;3.33;;
41167;SDS011;26906;45.658;9.272;2023-05-20T15:36:15;6.57;;;4.00;;
41167;SDS011;26906;45.658;9.272;2023-05-20T15:38:41;9.73;;;5.70;;
41167;SDS011;26906;45.658;9.272;2023-05-20T15:41:08;13.18;;;5.35;;
41167;SDS011;26906;45.658;9.272;2023-05-20T15:43:36;7.05;;;5.00;;
41167;SDS011;26906;45.658;9.272;2023-05-20T15:46:02;6.45;;;5.93;;
41167;SDS011;26906;45.658;9.272;2023-05-20T15:48:28;9.63;;;5.18;;
41167;SDS011;26906;45.658;9.272;2023-05-20T15:50:53;7.32;;;4.80;;
41167;SDS011;26906;45.658;9.272;2023-05-20T15:53:19;6.15;;;5.22;;
41167;SDS011;26906;45.658;9.272;2023-05-20T15:55:45;6.93;;;4.90;;
41167;SDS011;26906;45.658;9.272;2023-05-20T15:58:12;12.10;;;9.38;;
41167;SDS011;26906;45.658;9.272;2023-05-20T16:00:38;6.18;;;5.03;;
41167;SDS011;26906;45.658;9.272;2023-05-20T16:03:04;7.50;;;4.75;;
41167;SDS011;26906;45.658;9.272;2023-05-20T16:05:30;7.25;;;4.90;;
41167;SDS011;26906;45.658;9.272;2023-05-20T16:07:55;6.65;;;4.80;;
41167;SDS011;26906;45.658;9.272;2023-05-20T16:10:21;6.32;;;5.18;;
41167;SDS011;26906;45.658;9.272;2023-05-20T16:12:47;7.10;;;6.07;;
41167;SDS011;26906;45.658;9.272;2023-05-20T16:15:12;6.43;;;5.78;;
41167;SDS011;26906;45.658;9.272;2023-05-20T16:17:38;7.13;;;6.05;;
41167;SDS011;26906;45.658;9.272;2023-05-20T16:20:04;8.60;;;7.47;;
41167;SDS011;26906;45.658;9.272;2023-05-20T16:22:34;11.10;;;8.45;;
41167;SDS011;26906;45.658;9.272;2023-05-20T16:25:00;8.48;;;7.15;;
41167;SDS011;26906;45.658;9.272;2023-05-20T16:27:26;6.93;;;6.15;;
41167;SDS011;26906;45.658;9.272;2023-05-20T16:29:52;10.00;;;7.63;;
41167;SDS011;26906;45.658;9.272;2023-05-20T16:32:18;8.48;;;6.68;;
41167;SDS011;26906;45.658;9.272;2023-05-20T16:34:46;8.82;;;7.22;;
41167;SDS011;26906;45.658;9.272;2023-05-20T16:37:12;10.20;;;7.40;;
41167;SDS011;26906;45.658;9.272;2023-05-20T16:39:38;8.10;;;7.30;;
41167;SDS011;26906;45.658;9.272;2023-05-20T16:42:04;10.77;;;8.32;;
41167;SDS011;26906;45.658;9.272;2023-05-20T16:44:33;8.25;;;6.78;;
41167;SDS011;26906;45.658;9.272;2023-05-20T16:47:03;6.90;;;6.10;;
41167;SDS011;26906;45.658;9.272;2023-05-20T16:49:29;7.93;;;6.90;;
41167;SDS011;26906;45.658;9.272;2023-05-20T16:51:55;10.88;;;6.63;;
41167;SDS011;26906;45.658;9.272;2023-05-20T16:54:20;7.70;;;6.65;;
41167;SDS011;26906;45.658;9.272;2023-05-20T16:56:46;7.03;;;6.32;;
41167;SDS011;26906;45.658;9.272;2023-05-20T16:59:12;12.27;;;8.82;;
41167;SDS011;26906;45.658;9.272;2023-05-20T17:01:40;7.60;;;6.45;;
41167;SDS011;26906;45.658;9.272;2023-05-20T17:04:05;7.50;;;5.97;;
41167;SDS011;26906;45.658;9.272;2023-05-20T17:06:31;8.95;;;8.00;;
41167;SDS011;26906;45.658;9.272;2023-05-20T17:08:58;7.20;;;6.50;;
41167;SDS011;26906;45.658;9.272;2023-05-20T17:11:26;7.22;;;6.53;;
41167;SDS011;26906;45.658;9.272;2023-05-20T17:13:52;9.55;;;6.80;;
41167;SDS011;26906;45.658;9.272;2023-05-20T17:16:19;6.50;;;5.53;;
41167;SDS011;26906;45.658;9.272;2023-05-20T17:18:45;6.63;;;5.93;;
41167;SDS011;26906;45.658;9.272;2023-05-20T17:21:12;10.18;;;6.32;;
41167;SDS011;26906;45.658;9.272;2023-05-20T17:23:39;6.18;;;5.55;;
41167;SDS011;26906;45.658;9.272;2023-05-20T17:26:05;7.53;;;6.15;;
41167;SDS011;26906;45.658;9.272;2023-05-20T17:28:30;7.38;;;6.32;;
41167;SDS011;26906;45.658;9.272;2023-05-20T17:30:56;8.07;;;7.15;;
41167;SDS011;26906;45.658;9.272;2023-05-20T17:33:23;7.80;;;6.80;;
41167;SDS011;26906;45.658;9.272;2023-05-20T17:35:48;8.38;;;6.80;;
41167;SDS011;26906;45.658;9.272;2023-05-20T17:38:14;12.57;;;7.78;;
41167;SDS011;26906;45.658;9.272;2023-05-20T17:40:40;8.85;;;7.60;;
41167;SDS011;26906;45.658;9.272;2023-05-20T17:43:06;7.32;;;6.15;;
41167;SDS011;26906;45.658;9.272;2023-05-20T17:45:32;9.88;;;7.03;;
41167;SDS011;26906;45.658;9.272;2023-05-20T17:47:58;12.25;;;7.68;;
41167;SDS011;26906;45.658;9.272;2023-05-20T17:50:23;9.77;;;8.25;;
41167;SDS011;26906;45.658;9.272;2023-05-20T17:52:49;11.10;;;9.50;;
41167;SDS011;26906;45.658;9.272;2023-05-20T17:55:15;10.45;;;9.00;;
41167;SDS011;26906;45.658;9.272;2023-05-20T17:57:42;8.30;;;7.22;;
41167;SDS011;26906;45.658;9.272;2023-05-20T18:00:08;9.73;;;6.60;;
41167;SDS011;26906;45.658;9.272;2023-05-20T18:02:34;8.07;;;6.82;;
41167;SDS011;26906;45.658;9.272;2023-05-20T18:05:02;8.45;;;7.57;;
41167;SDS011;26906;45.658;9.272;2023-05-20T18:07:30;9.35;;;6.57;;
41167;SDS011;26906;45.658;9.272;2023-05-20T18:09:57;8.52;;;7.40;;
41167;SDS011;26906;45.658;9.272;2023-05-20T18:12:23;11.18;;;9.27;;
41167;SDS011;26906;45.658;9.272;2023-05-20T18:14:48;9.57;;;8.57;;
41167;SDS011;26906;45.658;9.272;2023-05-20T18:17:14;10.82;;;8.50;;
41167;SDS011;26906;45.658;9.272;2023-05-20T18:19:40;15.18;;;10.25;;
41167;SDS011;26906;45.658;9.272;2023-05-20T18:22:06;15.38;;;10.40;;
41167;SDS011;26906;45.658;9.272;2023-05-20T18:24:31;11.25;;;9.15;;
41167;SDS011;26906;45.658;9.272;2023-05-20T18:26:57;10.43;;;8.02;;
41167;SDS011;26906;45.658;9.272;2023-05-20T18:29:23;11.25;;;8.35;;
41167;SDS011;26906;45.658;9.272;2023-05-20T18:31:52;9.73;;;7.53;;
41167;SDS011;26906;45.658;9.272;2023-05-20T18:34:17;11.63;;;8.35;;
41167;SDS011;26906;45.658;9.272;2023-05-20T18:36:43;8.60;;;7.57;;
41167;SDS011;26906;45.658;9.272;2023-05-20T18:39:09;9.63;;;7.45;;
41167;SDS011;26906;45.658;9.272;2023-05-20T18:41:38;8.73;;;6.50;;
41167;SDS011;26906;45.658;9.272;2023-05-20T18:44:04;8.05;;;7.13;;
41167;SDS011;26906;45.658;9.272;2023-05-20T18:46:29;8.40;;;6.90;;
41167;SDS011;26906;45.658;9.272;2023-05-20T18:48:55;9.30;;;7.43;;
41167;SDS011;26906;45.658;9.272;2023-05-20T18:51:21;13.35;;;7.93;;
41167;SDS011;26906;45.658;9.272;2023-05-20T18:53:46;10.32;;;8.05;;
41167;SDS011;26906;45.658;9.272;2023-05-20T18:56:12;8.88;;;7.90;;
41167;SDS011;26906;45.658;9.272;2023-05-20T18:58:38;10.45;;;8.25;;
41167;SDS011;26906;45.658;9.272;2023-05-20T19:01:04;10.27;;;8.75;;
41167;SDS011;26906;45.658;9.272;2023-05-20T19:03:31;10.25;;;8.77;;
41167;SDS011;26906;45.658;9.272;2023-05-20T19:05:56;10.88;;;8.25;;
41167;SDS011;26906;45.658;9.272;2023-05-20T19:08:22;9.85;;;8.85;;
41167;SDS011;26906;45.658;9.272;2023-05-20T19:10:48;10.18;;;9.10;;
41167;SDS011;26906;45.658;9.272;2023-05-20T19:13:13;9.80;;;8.80;;
41167;SDS011;26906;45.658;9.272;2023-05-20T19:15:39;9.80;;;8.80;;
41167;SDS011;26906;45.658;9.272;2023-05-20T19:18:05;11.02;;;9.25;;
41167;SDS011;26906;45.658;9.272;2023-05-20T19:20:31;10.77;;;9.15;;
41167;SDS011;26906;45.658;9.272;2023-05-20T19:22:58;11.10;;;9.15;;
41167;SDS011;26906;45.658;9.272;2023-05-20T19:25:24;11.18;;;9.88;;
41167;SDS011;26906;45.658;9.272;2023-05-20T19:27:50;12.82;;;9.82;;
41167;SDS011;26906;45.658;9.272;2023-05-20T19:30:16;10.93;;;9.82;;
41167;SDS011;26906;45.658;9.272;2023-05-20T19:32:41;10.60;;;9.27;;
41167;SDS011;26906;45.658;9.272;2023-05-20T19:35:07;10.45;;;9.43;;
41167;SDS011;26906;45.658;9.272;2023-05-20T19:37:33;11.32;;;9.73;;
41167;SDS011;26906;45.658;9.272;2023-05-20T19:39:59;12.88;;;11.20;;
41167;SDS011;26906;45.658;9.272;2023-05-20T19:42:25;18.13;;;12.88;;
41167;SDS011;26906;45.658;9.272;2023-05-20T19:44:51;12.77;;;10.90;;
41167;SDS011;26906;45.658;9.272;2023-05-20T19:47:18;16.08;;;12.48;;
41167;SDS011;26906;45.658;9.272;2023-05-20T19:49:43;15.82;;;11.77;;
41167;SDS011;26906;45.658;9.272;2023-05-20T19:52:09;17.02;;;11.70;;
41167;SDS011;26906;45.658;9.272;2023-05-20T19:54:35;13.70;;;12.05;;
41167;SDS011;26906;45.658;9.272;2023-05-20T19:57:00;13.10;;;11.25;;
41167;SDS011;26906;45.658;9.272;2023-05-20T19:59:26;12.35;;;10.18;;
41167;SDS011;26906;45.658;9.272;2023-05-20T20:01:52;13.57;;;10.95;;
41167;SDS011;26906;45.658;9.272;2023-05-20T20:04:18;12.77;;;9.93;;
41167;SDS011;26906;45.658;9.272;2023-05-20T20:06:44;12.32;;;9.75;;
41167;SDS011;26906;45.658;9.272;2023-05-20T20:09:11;11.10;;;10.00;;
41167;SDS011;26906;45.658;9.272;2023-05-20T20:11:36;14.98;;;9.73;;
41167;SDS011;26906;45.658;9.272;2023-05-20T20:14:04;10.48;;;8.93;;
41167;SDS011;26906;45.658;9.272;2023-05-20T20:16:30;11.65;;;10.10;;
41167;SDS011;26906;45.658;9.272;2023-05-20T20:18:55;12.85;;;9.77;;
41167;SDS011;26906;45.658;9.272;2023-05-20T20:21:21;10.80;;;8.50;;
41167;SDS011;26906;45.658;9.272;2023-05-20T20:23:49;9.82;;;8.82;;
41167;SDS011;26906;45.658;9.272;2023-05-20T20:26:15;10.20;;;9.20;;
